sensor_id;sensor_type;location;lat;lon;timestamp;pressure;altitude;pressure_sealevel;temperature;humidity
34979;BME280;21185;50.978;13.720;2024-03-22T00:02:48;98844.88;;;10.36;68.29
34979;BME280;21185;50.978;13.720;2024-03-22T00:07:51;98836.28;;;10.36;67.89
34979;BME280;21185;50.978;13.720;2024-03-22T00:12:52;98842.56;;;10.33;67.98
34979;BME280;21185;50.978;13.720;2024-03-22T00:17:53;98832.19;;;10.33;68.07
34979;BME280;21185;50.978;13.720;2024-03-22T00:22:54;98832.03;;;10.35;67.98
34979;BME280;21185;50.978;13.720;2024-03-22T00:27:55;98835.47;;;10.35;68.09
34979;BME280;21185;50.978;13.720;2024-03-22T00:32:56;98828.78;;;10.33;67.93
34979;BME280;21185;50.978;13.720;2024-03-22T00:37:57;98824.69;;;10.30;68.08
34979;BME280;21185;50.978;13.720;2024-03-22T00:42:58;98823.88;;;10.30;67.82
34979;BME280;21185;50.978;13.720;2024-03-22T00:48:00;98823.75;;;10.31;67.96
34979;BME280;21185;50.978;13.720;2024-03-22T00:53:01;98809.81;;;10.32;68.01
34979;BME280;21185;50.978;13.720;2024-03-22T00:58:04;98825.06;;;10.35;67.68
34979;BME280;21185;50.978;13.720;2024-03-22T01:03:05;98804.31;;;10.35;67.68
34979;BME280;21185;50.978;13.720;2024-03-22T01:08:06;98808.56;;;10.36;67.70
34979;BME280;21185;50.978;13.720;2024-03-22T01:13:07;98802.41;;;10.37;67.50
34979;BME280;21185;50.978;13.720;2024-03-22T01:18:09;98796.41;;;10.37;67.51
34979;BME280;21185;50.978;13.720;2024-03-22T01:23:10;98784.38;;;10.36;67.65
34979;BME280;21185;50.978;13.720;2024-03-22T01:28:11;98792.16;;;10.36;67.45
34979;BME280;21185;50.978;13.720;2024-03-22T01:33:12;98771.41;;;10.36;67.41
34979;BME280;21185;50.978;13.720;2024-03-22T01:38:13;98761.03;;;10.36;67.44
34979;BME280;21185;50.978;13.720;2024-03-22T01:43:14;98767.34;;;10.33;67.37
34979;BME280;21185;50.978;13.720;2024-03-22T01:48:15;98748.38;;;10.33;67.37
34979;BME280;21185;50.978;13.720;2024-03-22T01:53:16;98748.66;;;10.30;67.30
34979;BME280;21185;50.978;13.720;2024-03-22T01:58:18;98749.25;;;10.24;67.55
34979;BME280;21185;50.978;13.720;2024-03-22T02:03:21;98742.44;;;10.23;67.31
34979;BME280;21185;50.978;13.720;2024-03-22T02:08:22;98740.81;;;10.22;67.29
34979;BME280;21185;50.978;13.720;2024-03-22T02:13:23;98731.41;;;10.21;67.31
34979;BME280;21185;50.978;13.720;2024-03-22T02:18:24;98721.28;;;10.18;67.26
34979;BME280;21185;50.978;13.720;2024-03-22T02:23:36;98722.56;;;10.14;67.20
34979;BME280;21185;50.978;13.720;2024-03-22T02:28:37;98713.28;;;10.11;67.32
34979;BME280;21185;50.978;13.720;2024-03-22T02:33:38;98706.78;;;10.07;67.31
34979;BME280;21185;50.978;13.720;2024-03-22T02:38:39;98694.91;;;10.04;67.36
34979;BME280;21185;50.978;13.720;2024-03-22T02:43:40;98684.03;;;10.01;67.50
34979;BME280;21185;50.978;13.720;2024-03-22T02:48:41;98683.38;;;9.99;67.50
34979;BME280;21185;50.978;13.720;2024-03-22T02:53:42;98677.50;;;9.97;67.47
34979;BME280;21185;50.978;13.720;2024-03-22T02:58:43;98674.91;;;9.97;67.42
34979;BME280;21185;50.978;13.720;2024-03-22T03:03:44;98674.09;;;9.96;67.72
34979;BME280;21185;50.978;13.720;2024-03-22T03:08:46;98671.66;;;9.95;67.63
34979;BME280;21185;50.978;13.720;2024-03-22T03:13:47;98677.81;;;9.94;67.92
34979;BME280;21185;50.978;13.720;2024-03-22T03:18:48;98674.09;;;9.96;67.82
34979;BME280;21185;50.978;13.720;2024-03-22T03:23:50;98663.88;;;9.95;67.77
34979;BME280;21185;50.978;13.720;2024-03-22T03:28:51;98651.75;;;9.95;67.88
34979;BME280;21185;50.978;13.720;2024-03-22T03:33:52;98644.13;;;9.94;67.95
34979;BME280;21185;50.978;13.720;2024-03-22T03:38:53;98646.84;;;9.92;67.79
34979;BME280;21185;50.978;13.720;2024-03-22T03:43:54;98644.41;;;9.91;68.15
34979;BME280;21185;50.978;13.720;2024-03-22T03:48:55;98640.34;;;9.88;68.17
34979;BME280;21185;50.978;13.720;2024-03-22T03:53:56;98632.03;;;9.85;68.31
34979;BME280;21185;50.978;13.720;2024-03-22T03:58:57;98633.31;;;9.81;68.44
34979;BME280;21185;50.978;13.720;2024-03-22T04:03:59;98629.22;;;9.78;68.60
34979;BME280;21185;50.978;13.720;2024-03-22T04:09:00;98630.19;;;9.77;68.48
34979;BME280;21185;50.978;13.720;2024-03-22T04:14:01;98626.78;;;9.77;68.05
34979;BME280;21185;50.978;13.720;2024-03-22T04:19:08;98620.78;;;9.76;68.64
34979;BME280;21185;50.978;13.720;2024-03-22T04:24:09;98621.91;;;9.73;68.51
34979;BME280;21185;50.978;13.720;2024-03-22T04:29:10;98614.13;;;9.73;68.52
34979;BME280;21185;50.978;13.720;2024-03-22T04:34:13;98610.72;;;9.73;68.41
34979;BME280;21185;50.978;13.720;2024-03-22T04:39:14;98599.53;;;9.72;68.39
34979;BME280;21185;50.978;13.720;2024-03-22T04:44:17;98597.25;;;9.69;68.41
34979;BME280;21185;50.978;13.720;2024-03-22T04:49:18;98595.75;;;9.67;68.29
34979;BME280;21185;50.978;13.720;2024-03-22T04:54:19;98586.50;;;9.64;68.32
34979;BME280;21185;50.978;13.720;2024-03-22T04:59:28;98580.81;;;9.61;68.11
34979;BME280;21185;50.978;13.720;2024-03-22T05:04:30;98580.16;;;9.59;68.08
34979;BME280;21185;50.978;13.720;2024-03-22T05:09:31;98586.28;;;9.58;68.22
34979;BME280;21185;50.978;13.720;2024-03-22T05:14:32;98581.25;;;9.56;68.02
34979;BME280;21185;50.978;13.720;2024-03-22T05:19:40;98573.50;;;9.56;68.12
34979;BME280;21185;50.978;13.720;2024-03-22T05:24:41;98577.69;;;9.57;68.07
34979;BME280;21185;50.978;13.720;2024-03-22T05:29:43;98573.03;;;9.61;68.05
34979;BME280;21185;50.978;13.720;2024-03-22T05:34:44;98567.41;;;9.65;67.74
34979;BME280;21185;50.978;13.720;2024-03-22T05:39:45;98556.59;;;9.70;67.23
34979;BME280;21185;50.978;13.720;2024-03-22T05:44:47;98537.34;;;9.72;67.65
34979;BME280;21185;50.978;13.720;2024-03-22T05:49:49;98550.66;;;9.78;67.47
34979;BME280;21185;50.978;13.720;2024-03-22T05:54:50;98539.56;;;9.85;67.03
34979;BME280;21185;50.978;13.720;2024-03-22T05:59:52;98537.47;;;9.89;66.92
34979;BME280;21185;50.978;13.720;2024-03-22T06:04:55;98543.47;;;9.89;66.47
34979;BME280;21185;50.978;13.720;2024-03-22T06:09:56;98530.50;;;9.89;65.81
34979;BME280;21185;50.978;13.720;2024-03-22T06:14:58;98525.16;;;9.91;65.52
34979;BME280;21185;50.978;13.720;2024-03-22T06:20:00;98521.47;;;9.93;65.58
34979;BME280;21185;50.978;13.720;2024-03-22T06:25:01;98517.44;;;9.99;65.32
34979;BME280;21185;50.978;13.720;2024-03-22T06:30:07;98515.53;;;10.01;65.08
34979;BME280;21185;50.978;13.720;2024-03-22T06:35:08;98513.28;;;10.06;64.79
34979;BME280;21185;50.978;13.720;2024-03-22T06:40:10;98505.25;;;10.17;64.84
34979;BME280;21185;50.978;13.720;2024-03-22T06:45:12;98505.97;;;10.27;64.62
34979;BME280;21185;50.978;13.720;2024-03-22T06:50:14;98506.03;;;10.35;64.44
34979;BME280;21185;50.978;13.720;2024-03-22T06:55:16;98489.34;;;10.38;63.90
34979;BME280;21185;50.978;13.720;2024-03-22T07:00:17;98488.03;;;10.42;63.98
34979;BME280;21185;50.978;13.720;2024-03-22T07:05:18;98475.56;;;10.46;63.64
34979;BME280;21185;50.978;13.720;2024-03-22T07:10:22;98470.72;;;10.51;63.61
34979;BME280;21185;50.978;13.720;2024-03-22T07:15:24;98482.41;;;10.55;63.52
34979;BME280;21185;50.978;13.720;2024-03-22T07:20:26;98483.25;;;10.63;63.60
34979;BME280;21185;50.978;13.720;2024-03-22T07:25:27;98482.28;;;10.73;63.47
34979;BME280;21185;50.978;13.720;2024-03-22T07:30:29;98477.94;;;10.81;63.54
34979;BME280;21185;50.978;13.720;2024-03-22T07:35:31;98476.50;;;10.87;63.49
34979;BME280;21185;50.978;13.720;2024-03-22T07:40:33;98464.00;;;10.90;63.21
34979;BME280;21185;50.978;13.720;2024-03-22T07:45:34;98472.78;;;10.97;63.37
34979;BME280;21185;50.978;13.720;2024-03-22T07:50:37;98472.31;;;11.02;62.87
34979;BME280;21185;50.978;13.720;2024-03-22T07:55:38;98467.13;;;11.10;63.18
34979;BME280;21185;50.978;13.720;2024-03-22T08:00:39;98455.28;;;11.24;63.22
34979;BME280;21185;50.978;13.720;2024-03-22T08:05:42;98451.72;;;11.41;63.19
34979;BME280;21185;50.978;13.720;2024-03-22T08:10:43;98460.47;;;11.48;63.03
34979;BME280;21185;50.978;13.720;2024-03-22T08:15:44;98442.59;;;11.53;63.14
34979;BME280;21185;50.978;13.720;2024-03-22T08:20:46;98438.06;;;11.63;63.14
34979;BME280;21185;50.978;13.720;2024-03-22T08:25:48;98441.63;;;11.71;63.15
34979;BME280;21185;50.978;13.720;2024-03-22T08:30:49;98436.91;;;11.74;62.49
34979;BME280;21185;50.978;13.720;2024-03-22T08:35:50;98431.53;;;11.76;62.21
34979;BME280;21185;50.978;13.720;2024-03-22T08:40:52;98425.53;;;11.83;61.97
34979;BME280;21185;50.978;13.720;2024-03-22T08:45:53;98414.31;;;11.91;61.34
34979;BME280;21185;50.978;13.720;2024-03-22T08:50:54;98412.81;;;11.96;60.52
34979;BME280;21185;50.978;13.720;2024-03-22T08:55:56;98404.53;;;12.01;60.59
34979;BME280;21185;50.978;13.720;2024-03-22T09:00:56;98385.81;;;12.06;59.77
34979;BME280;21185;50.978;13.720;2024-03-22T09:05:58;98390.63;;;12.17;58.81
34979;BME280;21185;50.978;13.720;2024-03-22T09:10:59;98385.41;;;12.25;58.46
34979;BME280;21185;50.978;13.720;2024-03-22T09:16:01;98386.97;;;12.34;58.08
34979;BME280;21185;50.978;13.720;2024-03-22T09:21:03;98382.88;;;12.40;57.48
34979;BME280;21185;50.978;13.720;2024-03-22T09:26:05;98382.19;;;12.46;56.75
34979;BME280;21185;50.978;13.720;2024-03-22T09:31:07;98380.19;;;12.56;56.03
34979;BME280;21185;50.978;13.720;2024-03-22T09:36:09;98370.66;;;12.71;56.34
34979;BME280;21185;50.978;13.720;2024-03-22T09:41:10;98371.00;;;12.91;56.03
34979;BME280;21185;50.978;13.720;2024-03-22T09:46:14;98363.59;;;13.03;55.53
34979;BME280;21185;50.978;13.720;2024-03-22T09:51:16;98353.38;;;13.16;55.79
34979;BME280;21185;50.978;13.720;2024-03-22T09:56:20;98354.00;;;13.41;55.36
34979;BME280;21185;50.978;13.720;2024-03-22T10:01:24;98341.69;;;13.64;55.32
34979;BME280;21185;50.978;13.720;2024-03-22T10:06:28;98341.34;;;13.67;55.15
34979;BME280;21185;50.978;13.720;2024-03-22T10:11:30;98330.28;;;13.80;54.70
34979;BME280;21185;50.978;13.720;2024-03-22T10:16:36;98330.97;;;14.03;54.97
34979;BME280;21185;50.978;13.720;2024-03-22T10:21:38;98325.72;;;14.18;54.38
34979;BME280;21185;50.978;13.720;2024-03-22T10:26:40;98327.66;;;14.31;53.92
34979;BME280;21185;50.978;13.720;2024-03-22T10:31:42;98308.03;;;14.35;53.99
34979;BME280;21185;50.978;13.720;2024-03-22T10:36:46;98308.09;;;14.41;54.55
34979;BME280;21185;50.978;13.720;2024-03-22T10:41:48;98300.19;;;14.49;54.37
34979;BME280;21185;50.978;13.720;2024-03-22T10:46:51;98299.38;;;14.49;53.09
34979;BME280;21185;50.978;13.720;2024-03-22T10:51:59;98294.34;;;14.69;53.52
34979;BME280;21185;50.978;13.720;2024-03-22T10:57:02;98287.22;;;14.84;53.33
34979;BME280;21185;50.978;13.720;2024-03-22T11:02:05;98279.81;;;14.87;52.97
34979;BME280;21185;50.978;13.720;2024-03-22T11:07:07;98274.84;;;14.93;53.14
34979;BME280;21185;50.978;13.720;2024-03-22T11:12:09;98259.16;;;14.93;52.91
34979;BME280;21185;50.978;13.720;2024-03-22T11:17:11;98247.28;;;14.90;52.19
34979;BME280;21185;50.978;13.720;2024-03-22T11:22:14;98246.09;;;14.93;52.74
34979;BME280;21185;50.978;13.720;2024-03-22T11:27:16;98235.88;;;14.98;52.29
34979;BME280;21185;50.978;13.720;2024-03-22T11:32:17;98229.03;;;14.97;51.76
34979;BME280;21185;50.978;13.720;2024-03-22T11:37:18;98228.22;;;14.96;51.69
34979;BME280;21185;50.978;13.720;2024-03-22T11:42:19;98216.22;;;15.02;52.23
34979;BME280;21185;50.978;13.720;2024-03-22T11:47:21;98205.19;;;15.06;51.97
34979;BME280;21185;50.978;13.720;2024-03-22T11:52:26;98192.81;;;15.21;52.45
34979;BME280;21185;50.978;13.720;2024-03-22T11:57:28;98192.22;;;15.26;52.01
34979;BME280;21185;50.978;13.720;2024-03-22T12:02:31;98180.97;;;15.26;52.04
34979;BME280;21185;50.978;13.720;2024-03-22T12:07:34;98171.91;;;15.28;51.81
34979;BME280;21185;50.978;13.720;2024-03-22T12:12:35;98163.69;;;15.31;51.63
34979;BME280;21185;50.978;13.720;2024-03-22T12:17:37;98168.53;;;15.34;52.21
34979;BME280;21185;50.978;13.720;2024-03-22T12:22:40;98161.50;;;15.35;51.89
34979;BME280;21185;50.978;13.720;2024-03-22T12:27:41;98146.81;;;15.34;51.33
34979;BME280;21185;50.978;13.720;2024-03-22T12:32:44;98142.03;;;15.44;51.69
34979;BME280;21185;50.978;13.720;2024-03-22T12:37:45;98144.47;;;15.52;52.03
34979;BME280;21185;50.978;13.720;2024-03-22T12:43:12;98136.41;;;15.53;51.87
34979;BME280;21185;50.978;13.720;2024-03-22T12:48:12;98130.19;;;15.54;52.20
34979;BME280;21185;50.978;13.720;2024-03-22T12:53:14;98132.19;;;15.52;52.26
34979;BME280;21185;50.978;13.720;2024-03-22T12:58:14;98115.88;;;15.50;52.25
34979;BME280;21185;50.978;13.720;2024-03-22T13:03:15;98113.88;;;15.46;51.95
34979;BME280;21185;50.978;13.720;2024-03-22T13:08:17;98099.19;;;15.45;51.90
34979;BME280;21185;50.978;13.720;2024-03-22T13:13:18;98094.75;;;15.45;52.21
34979;BME280;21185;50.978;13.720;2024-03-22T13:18:20;98085.69;;;15.41;52.50
34979;BME280;21185;50.978;13.720;2024-03-22T13:23:21;98082.03;;;15.29;52.45
34979;BME280;21185;50.978;13.720;2024-03-22T13:28:22;98084.03;;;15.20;52.04
34979;BME280;21185;50.978;13.720;2024-03-22T13:33:52;98076.16;;;15.14;51.82
34979;BME280;21185;50.978;13.720;2024-03-22T13:38:56;98064.69;;;15.08;51.52
34979;BME280;21185;50.978;13.720;2024-03-22T13:43:56;98046.78;;;15.05;51.36
34979;BME280;21185;50.978;13.720;2024-03-22T13:48:58;98040.56;;;15.06;51.53
34979;BME280;21185;50.978;13.720;2024-03-22T13:53:59;98033.13;;;15.10;51.58
34979;BME280;21185;50.978;13.720;2024-03-22T13:59:01;98038.56;;;15.15;51.53
34979;BME280;21185;50.978;13.720;2024-03-22T14:04:04;98028.13;;;15.15;51.00
34979;BME280;21185;50.978;13.720;2024-03-22T14:09:06;98013.66;;;15.19;51.30
34979;BME280;21185;50.978;13.720;2024-03-22T14:14:11;98008.03;;;15.22;50.86
34979;BME280;21185;50.978;13.720;2024-03-22T14:19:13;97997.19;;;15.25;51.20
34979;BME280;21185;50.978;13.720;2024-03-22T14:24:14;97999.59;;;15.27;51.48
34979;BME280;21185;50.978;13.720;2024-03-22T14:29:16;97989.94;;;15.27;51.71
34979;BME280;21185;50.978;13.720;2024-03-22T14:34:18;97985.13;;;15.24;51.80
34979;BME280;21185;50.978;13.720;2024-03-22T14:39:19;97978.28;;;15.23;51.87
34979;BME280;21185;50.978;13.720;2024-03-22T14:44:20;97975.66;;;15.23;51.76
34979;BME280;21185;50.978;13.720;2024-03-22T14:49:23;97966.41;;;15.20;52.06
34979;BME280;21185;50.978;13.720;2024-03-22T14:54:24;97970.81;;;15.13;51.72
34979;BME280;21185;50.978;13.720;2024-03-22T14:59:29;97968.19;;;15.07;51.30
34979;BME280;21185;50.978;13.720;2024-03-22T15:04:30;97959.34;;;15.01;51.33
34979;BME280;21185;50.978;13.720;2024-03-22T15:09:31;97965.16;;;14.97;51.31
34979;BME280;21185;50.978;13.720;2024-03-22T15:14:33;97955.72;;;14.96;51.94
34979;BME280;21185;50.978;13.720;2024-03-22T15:19:35;97952.69;;;14.92;51.96
34979;BME280;21185;50.978;13.720;2024-03-22T15:24:36;97949.84;;;14.87;51.68
34979;BME280;21185;50.978;13.720;2024-03-22T15:29:37;97944.41;;;14.82;52.07
34979;BME280;21185;50.978;13.720;2024-03-22T15:34:39;97944.00;;;14.78;52.26
34979;BME280;21185;50.978;13.720;2024-03-22T15:39:39;97937.38;;;14.76;52.24
34979;BME280;21185;50.978;13.720;2024-03-22T15:44:41;97939.38;;;14.74;52.93
34979;BME280;21185;50.978;13.720;2024-03-22T15:49:42;97936.97;;;14.72;52.98
34979;BME280;21185;50.978;13.720;2024-03-22T15:54:43;97926.72;;;14.71;53.64
34979;BME280;21185;50.978;13.720;2024-03-22T15:59:44;97923.50;;;14.69;53.77
34979;BME280;21185;50.978;13.720;2024-03-22T16:04:45;97921.69;;;14.69;53.96
34979;BME280;21185;50.978;13.720;2024-03-22T16:09:46;97924.50;;;14.68;54.24
34979;BME280;21185;50.978;13.720;2024-03-22T16:14:47;97916.66;;;14.68;54.43
34979;BME280;21185;50.978;13.720;2024-03-22T16:19:48;97910.63;;;14.67;54.61
34979;BME280;21185;50.978;13.720;2024-03-22T16:24:50;97907.41;;;14.65;54.77
34979;BME280;21185;50.978;13.720;2024-03-22T16:29:51;97894.75;;;14.62;54.97
34979;BME280;21185;50.978;13.720;2024-03-22T16:34:53;97906.19;;;14.61;55.29
34979;BME280;21185;50.978;13.720;2024-03-22T16:39:54;97894.13;;;14.60;55.48
34979;BME280;21185;50.978;13.720;2024-03-22T16:44:55;97901.34;;;14.58;55.56
34979;BME280;21185;50.978;13.720;2024-03-22T16:49:58;97882.47;;;14.56;55.76
34979;BME280;21185;50.978;13.720;2024-03-22T16:55:00;97889.31;;;14.57;56.37
34979;BME280;21185;50.978;13.720;2024-03-22T17:00:01;97886.09;;;14.55;56.57
34979;BME280;21185;50.978;13.720;2024-03-22T17:05:03;97879.25;;;14.54;56.61
34979;BME280;21185;50.978;13.720;2024-03-22T17:10:08;97887.47;;;14.51;56.93
34979;BME280;21185;50.978;13.720;2024-03-22T17:15:09;97880.84;;;14.48;57.16
34979;BME280;21185;50.978;13.720;2024-03-22T17:20:11;97880.44;;;14.45;57.43
34979;BME280;21185;50.978;13.720;2024-03-22T17:25:15;97887.66;;;14.43;57.54
34979;BME280;21185;50.978;13.720;2024-03-22T17:30:24;97882.19;;;14.38;57.75
34979;BME280;21185;50.978;13.720;2024-03-22T17:35:27;97884.19;;;14.36;58.06
34979;BME280;21185;50.978;13.720;2024-03-22T17:40:30;97895.22;;;14.31;57.73
34979;BME280;21185;50.978;13.720;2024-03-22T17:45:32;97893.41;;;14.32;57.46
34979;BME280;21185;50.978;13.720;2024-03-22T17:50:33;97885.78;;;14.30;57.56
34979;BME280;21185;50.978;13.720;2024-03-22T17:55:36;97881.75;;;14.27;57.39
34979;BME280;21185;50.978;13.720;2024-03-22T18:00:38;97887.16;;;14.26;57.91
34979;BME280;21185;50.978;13.720;2024-03-22T18:05:40;97885.75;;;14.23;57.59
34979;BME280;21185;50.978;13.720;2024-03-22T18:10:41;97881.91;;;14.19;58.05
34979;BME280;21185;50.978;13.720;2024-03-22T18:15:43;97879.88;;;14.15;58.45
34979;BME280;21185;50.978;13.720;2024-03-22T18:20:44;97874.25;;;14.11;58.58
34979;BME280;21185;50.978;13.720;2024-03-22T18:25:45;97872.22;;;14.07;58.98
34979;BME280;21185;50.978;13.720;2024-03-22T18:30:48;97864.97;;;14.02;59.28
34979;BME280;21185;50.978;13.720;2024-03-22T18:35:49;97859.53;;;13.97;59.88
34979;BME280;21185;50.978;13.720;2024-03-22T18:40:50;97854.91;;;13.92;60.19
34979;BME280;21185;50.978;13.720;2024-03-22T18:45:58;97847.84;;;13.86;60.86
34979;BME280;21185;50.978;13.720;2024-03-22T18:50:59;97846.63;;;13.82;61.06
34979;BME280;21185;50.978;13.720;2024-03-22T18:56:01;97846.22;;;13.79;61.47
34979;BME280;21185;50.978;13.720;2024-03-22T19:01:03;97842.38;;;13.75;61.93
34979;BME280;21185;50.978;13.720;2024-03-22T19:06:05;97835.13;;;13.70;62.35
34979;BME280;21185;50.978;13.720;2024-03-22T19:11:11;97827.88;;;13.66;62.68
34979;BME280;21185;50.978;13.720;2024-03-22T19:16:12;97827.28;;;13.64;63.31
34979;BME280;21185;50.978;13.720;2024-03-22T19:21:18;97811.22;;;13.60;63.74
34979;BME280;21185;50.978;13.720;2024-03-22T19:26:20;97799.38;;;13.57;64.03
34979;BME280;21185;50.978;13.720;2024-03-22T19:31:21;97754.63;;;13.54;64.14
34979;BME280;21185;50.978;13.720;2024-03-22T19:36:24;97748.19;;;13.50;64.56
34979;BME280;21185;50.978;13.720;2024-03-22T19:41:27;97755.59;;;13.46;64.88
34979;BME280;21185;50.978;13.720;2024-03-22T19:46:29;97753.38;;;13.43;64.85
34979;BME280;21185;50.978;13.720;2024-03-22T19:51:31;97758.16;;;13.40;65.10
34979;BME280;21185;50.978;13.720;2024-03-22T19:56:32;97774.00;;;13.38;65.24
34979;BME280;21185;50.978;13.720;2024-03-22T20:01:35;97771.38;;;13.38;65.24
34979;BME280;21185;50.978;13.720;2024-03-22T20:06:36;97758.75;;;13.35;65.55
34979;BME280;21185;50.978;13.720;2024-03-22T20:11:37;97759.94;;;13.33;65.72
34979;BME280;21185;50.978;13.720;2024-03-22T20:16:39;97745.50;;;13.30;65.79
34979;BME280;21185;50.978;13.720;2024-03-22T20:21:40;97750.28;;;13.26;66.07
34979;BME280;21185;50.978;13.720;2024-03-22T20:26:43;97752.47;;;13.23;66.23
34979;BME280;21185;50.978;13.720;2024-03-22T20:31:44;97743.41;;;13.19;66.38
34979;BME280;21185;50.978;13.720;2024-03-22T20:36:45;97752.56;;;13.15;66.65
